Time;durP1;ratioP1;P1;durP2;ratioP2;P2;SDS_P1;SDS_P2;PMS_P1;PMS_P2;Temp;Humidity;BMP_temperature;BMP_pressure;BME280_temperature;BME280_humidity;BME280_pressure;Samples;Min_cycle;Max_cycle;Signal;HPM_P1;HPM_P2
2020/12/07 00:02:43;;;;;;;4.03;3.64;;;;;;;18.58;49.01;98496.02;;;;-54
2020/12/07 00:05:43;;;;;;;4.09;3.69;;;;;;;18.56;49.06;98495.48;;;;-55
2020/12/07 00:08:43;;;;;;;4.03;3.62;;;;;;;18.55;49.03;98499.95;;;;-55
2020/12/07 00:11:43;;;;;;;3.74;3.44;;;;;;;18.54;49.02;98498.13;;;;-54
2020/12/07 00:14:43;;;;;;;3.98;3.64;;;;;;;18.52;49.07;98497.77;;;;-55
2020/12/07 00:17:43;;;;;;;4.03;3.63;;;;;;;18.50;49.07;98495.94;;;;-51
2020/12/07 00:20:43;;;;;;;4.09;3.51;;;;;;;18.48;49.10;98496.28;;;;-55
2020/12/07 00:23:43;;;;;;;4.45;4.05;;;;;;;18.47;49.07;98483.75;;;;-55
2020/12/07 00:26:43;;;;;;;4.19;3.79;;;;;;;18.45;49.10;98477.15;;;;-54
2020/12/07 00:29:43;;;;;;;4.05;3.61;;;;;;;18.44;49.09;98486.98;;;;-53
2020/12/07 00:32:43;;;;;;;3.97;3.62;;;;;;;18.43;49.11;98504.44;;;;-55
2020/12/07 00:35:43;;;;;;;4.05;3.65;;;;;;;18.42;49.09;98493.59;;;;-54
2020/12/07 00:38:43;;;;;;;3.77;3.47;;;;;;;18.40;49.10;98492.50;;;;-54
2020/12/07 00:41:43;;;;;;;4.07;3.67;;;;;;;18.39;49.10;98500.08;;;;-54
2020/12/07 00:44:43;;;;;;;3.90;3.57;;;;;;;18.37;49.08;98505.70;;;;-51
2020/12/07 00:47:43;;;;;;;3.85;3.52;;;;;;;18.37;49.08;98506.12;;;;-51
2020/12/07 00:50:43;;;;;;;4.09;3.69;;;;;;;18.35;49.10;98505.67;;;;-53
2020/12/07 00:53:43;;;;;;;4.32;3.85;;;;;;;18.34;49.09;98506.81;;;;-53
2020/12/07 00:56:43;;;;;;;4.16;3.76;;;;;;;18.33;49.17;98507.66;;;;-54
2020/12/07 00:59:43;;;;;;;3.82;3.52;;;;;;;18.31;49.17;98502.49;;;;-54
2020/12/07 01:02:43;;;;;;;3.80;3.50;;;;;;;18.30;49.17;98494.57;;;;-54
2020/12/07 01:05:43;;;;;;;4.02;3.64;;;;;;;18.28;49.20;98504.48;;;;-53
2020/12/07 01:08:43;;;;;;;3.96;3.58;;;;;;;18.28;49.14;98505.88;;;;-51
2020/12/07 01:11:43;;;;;;;4.01;3.70;;;;;;;18.26;49.17;98500.14;;;;-55
2020/12/07 01:14:43;;;;;;;4.21;3.81;;;;;;;18.24;49.16;98498.91;;;;-54
2020/12/07 01:17:43;;;;;;;4.21;3.81;;;;;;;18.23;49.18;98495.50;;;;-52
2020/12/07 01:20:43;;;;;;;4.15;3.75;;;;;;;18.23;49.15;98489.52;;;;-54
2020/12/07 01:23:44;;;;;;;3.79;3.49;;;;;;;18.21;49.18;98487.69;;;;-53
2020/12/07 01:26:43;;;;;;;3.93;3.60;;;;;;;18.20;49.21;98492.48;;;;-53
2020/12/07 01:29:43;;;;;;;3.74;3.43;;;;;;;18.19;49.23;98489.03;;;;-53
2020/12/07 01:32:43;;;;;;;3.89;3.53;;;;;;;18.17;49.27;98490.67;;;;-54
2020/12/07 01:35:43;;;;;;;3.90;3.60;;;;;;;18.17;49.24;98492.08;;;;-54
2020/12/07 01:38:43;;;;;;;4.28;3.88;;;;;;;18.15;49.25;98502.41;;;;-53
2020/12/07 01:41:43;;;;;;;3.70;3.40;;;;;;;18.15;49.23;98518.52;;;;-54
2020/12/07 01:44:43;;;;;;;4.16;3.76;;;;;;;18.14;49.27;98525.71;;;;-53
2020/12/07 01:47:43;;;;;;;4.04;3.74;;;;;;;18.13;49.29;98526.36;;;;-51
2020/12/07 01:50:43;;;;;;;4.25;3.85;;;;;;;18.12;49.25;98525.10;;;;-54
2020/12/07 01:53:43;;;;;;;4.01;3.64;;;;;;;18.10;49.25;98525.03;;;;-54
2020/12/07 01:56:43;;;;;;;3.84;3.49;;;;;;;18.10;49.28;98529.03;;;;-54
2020/12/07 01:59:43;;;;;;;4.09;3.67;;;;;;;18.08;49.25;98528.64;;;;-54
2020/12/07 02:02:43;;;;;;;4.03;3.67;;;;;;;18.08;49.28;98533.35;;;;-53
2020/12/07 02:05:43;;;;;;;3.79;3.49;;;;;;;18.07;49.22;98538.38;;;;-54
2020/12/07 02:08:43;;;;;;;3.83;3.51;;;;;;;18.05;49.24;98534.94;;;;-55
2020/12/07 02:11:43;;;;;;;4.09;3.71;;;;;;;18.04;49.28;98533.97;;;;-53
2020/12/07 02:14:43;;;;;;;4.00;3.67;;;;;;;18.03;49.29;98532.45;;;;-55
2020/12/07 02:17:43;;;;;;;4.06;3.70;;;;;;;18.02;49.27;98533.30;;;;-51
2020/12/07 02:20:43;;;;;;;4.03;3.70;;;;;;;18.00;49.31;98535.11;;;;-51
2020/12/07 02:23:43;;;;;;;4.00;3.60;;;;;;;17.99;49.33;98528.30;;;;-54
2020/12/07 02:26:43;;;;;;;3.86;3.56;;;;;;;17.98;49.33;98530.52;;;;-53
2020/12/07 02:29:43;;;;;;;3.95;3.59;;;;;;;17.97;49.27;98532.17;;;;-54
2020/12/07 02:32:43;;;;;;;3.95;3.55;;;;;;;17.97;49.26;98539.38;;;;-53
2020/12/07 02:35:43;;;;;;;3.73;3.43;;;;;;;17.95;49.33;98536.98;;;;-52
2020/12/07 02:38:43;;;;;;;3.94;3.64;;;;;;;17.94;49.30;98536.10;;;;-51
2020/12/07 02:41:43;;;;;;;3.75;3.45;;;;;;;17.93;49.37;98543.91;;;;-51
2020/12/07 02:44:43;;;;;;;3.93;3.57;;;;;;;17.92;49.32;98553.08;;;;-54
2020/12/07 02:47:43;;;;;;;3.97;3.67;;;;;;;17.92;49.34;98554.88;;;;-51
2020/12/07 02:50:43;;;;;;;3.64;3.34;;;;;;;17.91;49.34;98561.45;;;;-53
2020/12/07 02:53:43;;;;;;;3.70;3.40;;;;;;;17.90;49.34;98563.08;;;;-51
2020/12/07 02:56:43;;;;;;;3.59;3.29;;;;;;;17.90;49.33;98563.58;;;;-55
2020/12/07 02:59:43;;;;;;;3.79;3.49;;;;;;;17.89;49.33;98562.39;;;;-54
2020/12/07 03:02:43;;;;;;;3.71;3.41;;;;;;;17.88;49.35;98568.70;;;;-54
2020/12/07 03:05:43;;;;;;;3.58;3.28;;;;;;;17.87;49.35;98569.54;;;;-54
2020/12/07 03:08:43;;;;;;;3.71;3.41;;;;;;;17.87;49.35;98574.09;;;;-51
2020/12/07 03:11:43;;;;;;;3.69;3.38;;;;;;;17.86;49.33;98578.13;;;;-51
2020/12/07 03:14:43;;;;;;;3.70;3.40;;;;;;;17.85;49.37;98579.71;;;;-53
2020/12/07 03:17:43;;;;;;;3.62;3.32;;;;;;;17.84;49.37;98572.52;;;;-53
2020/12/07 03:20:43;;;;;;;3.82;3.48;;;;;;;17.83;49.35;98561.52;;;;-54
2020/12/07 03:23:43;;;;;;;3.75;3.45;;;;;;;17.82;49.32;98560.19;;;;-53
2020/12/07 03:26:43;;;;;;;3.83;3.53;;;;;;;17.82;49.36;98558.66;;;;-54
2020/12/07 03:29:43;;;;;;;3.93;3.63;;;;;;;17.81;49.38;98559.50;;;;-54
2020/12/07 03:32:43;;;;;;;3.61;3.31;;;;;;;17.81;49.38;98563.13;;;;-54
2020/12/07 03:35:43;;;;;;;3.85;3.40;;;;;;;17.80;49.34;98570.52;;;;-53
2020/12/07 03:38:43;;;;;;;3.50;3.17;;;;;;;17.78;49.37;98574.69;;;;-53
2020/12/07 03:41:43;;;;;;;3.51;3.21;;;;;;;17.78;49.35;98574.77;;;;-54
2020/12/07 03:44:43;;;;;;;3.70;3.40;;;;;;;17.76;49.37;98577.64;;;;-54
2020/12/07 03:47:43;;;;;;;3.47;3.17;;;;;;;17.76;49.37;98574.15;;;;-53
2020/12/07 03:50:43;;;;;;;3.75;3.45;;;;;;;17.75;49.38;98569.88;;;;-53
2020/12/07 03:53:43;;;;;;;3.79;3.41;;;;;;;17.75;49.39;98573.70;;;;-53
2020/12/07 03:56:43;;;;;;;3.71;3.41;;;;;;;17.73;49.38;98578.25;;;;-53
2020/12/07 03:59:43;;;;;;;3.63;3.33;;;;;;;17.73;49.34;98586.69;;;;-53
2020/12/07 04:02:43;;;;;;;3.56;3.26;;;;;;;17.72;49.42;98585.47;;;;-51
2020/12/07 04:05:45;;;;;;;3.79;3.35;;;;;;;17.71;49.39;98590.44;;;;-53
2020/12/07 04:08:43;;;;;;;3.95;3.53;;;;;;;17.71;49.34;98591.75;;;;-51
2020/12/07 04:11:43;;;;;;;3.39;3.09;;;;;;;17.70;49.40;98592.39;;;;-54
2020/12/07 04:14:43;;;;;;;3.53;3.23;;;;;;;17.70;49.34;98591.77;;;;-53
2020/12/07 04:17:43;;;;;;;3.57;3.27;;;;;;;17.67;49.36;98591.89;;;;-53
2020/12/07 04:20:43;;;;;;;3.46;3.16;;;;;;;17.67;49.38;98596.80;;;;-54
2020/12/07 04:23:43;;;;;;;3.59;3.29;;;;;;;17.66;49.39;98606.73;;;;-54
2020/12/07 04:26:43;;;;;;;3.43;3.13;;;;;;;17.65;49.42;98604.86;;;;-55
2020/12/07 04:29:43;;;;;;;3.51;3.21;;;;;;;17.64;49.39;98613.31;;;;-51
2020/12/07 04:32:43;;;;;;;3.52;3.22;;;;;;;17.63;49.45;98614.04;;;;-53
2020/12/07 04:35:43;;;;;;;3.81;3.51;;;;;;;17.63;49.42;98621.73;;;;-53
2020/12/07 04:38:43;;;;;;;3.61;3.31;;;;;;;17.63;49.42;98624.84;;;;-55
2020/12/07 04:41:43;;;;;;;3.65;3.35;;;;;;;17.62;49.45;98628.83;;;;-54
2020/12/07 04:44:43;;;;;;;3.58;3.28;;;;;;;17.61;49.49;98632.23;;;;-52
2020/12/07 04:47:43;;;;;;;3.84;3.54;;;;;;;17.60;49.49;98629.74;;;;-52
2020/12/07 04:50:43;;;;;;;3.50;3.20;;;;;;;17.60;49.47;98629.08;;;;-53
2020/12/07 04:53:43;;;;;;;3.67;3.37;;;;;;;17.59;49.45;98635.41;;;;-53
2020/12/07 04:56:43;;;;;;;3.59;3.29;;;;;;;17.58;49.41;98632.27;;;;-51
2020/12/07 04:59:43;;;;;;;3.55;3.25;;;;;;;17.57;49.44;98636.33;;;;-51
2020/12/07 05:02:43;;;;;;;3.49;3.19;;;;;;;17.57;49.41;98635.12;;;;-52
2020/12/07 05:05:43;;;;;;;3.29;3.08;;;;;;;17.56;49.37;98637.08;;;;-54
2020/12/07 05:08:43;;;;;;;3.29;3.05;;;;;;;17.55;49.38;98643.64;;;;-54
2020/12/07 05:11:43;;;;;;;3.43;3.13;;;;;;;17.55;49.43;98649.00;;;;-54
2020/12/07 05:14:43;;;;;;;3.41;3.11;;;;;;;17.54;49.46;98654.44;;;;-53
2020/12/07 05:17:43;;;;;;;3.39;3.09;;;;;;;17.54;49.42;98656.88;;;;-54
2020/12/07 05:20:43;;;;;;;3.23;2.93;;;;;;;17.53;49.47;98663.02;;;;-54
2020/12/07 05:23:46;;;;;;;3.71;3.41;;;;;;;17.53;49.46;98666.53;;;;-51
2020/12/07 05:26:43;;;;;;;3.60;3.30;;;;;;;17.52;49.40;98674.39;;;;-51
2020/12/07 05:29:51;;;;;;;3.50;3.20;;;;;;;17.51;49.48;98678.54;;;;-54
2020/12/07 05:32:43;;;;;;;3.45;3.15;;;;;;;17.51;49.42;98688.80;;;;-53
2020/12/07 05:35:43;;;;;;;3.40;3.10;;;;;;;17.50;49.39;98689.48;;;;-53
2020/12/07 05:38:43;;;;;;;3.66;3.36;;;;;;;17.49;49.48;98690.86;;;;-51
2020/12/07 05:41:43;;;;;;;3.60;3.30;;;;;;;17.49;49.49;98685.61;;;;-51
2020/12/07 05:44:43;;;;;;;3.45;3.15;;;;;;;17.48;49.48;98687.08;;;;-53
2020/12/07 05:47:43;;;;;;;3.37;3.07;;;;;;;17.48;49.42;98692.76;;;;-54
2020/12/07 05:50:43;;;;;;;3.66;3.36;;;;;;;17.47;49.44;98693.01;;;;-53
2020/12/07 05:53:43;;;;;;;3.65;3.29;;;;;;;17.47;49.45;98692.44;;;;-54
2020/12/07 05:56:43;;;;;;;3.40;3.10;;;;;;;17.45;49.46;98697.02;;;;-53
2020/12/07 05:59:43;;;;;;;3.42;3.12;;;;;;;17.46;49.47;98699.91;;;;-52
2020/12/07 06:02:43;;;;;;;3.47;3.17;;;;;;;17.44;49.36;98705.02;;;;-54
2020/12/07 06:05:43;;;;;;;3.46;3.16;;;;;;;17.44;49.46;98704.64;;;;-54
2020/12/07 06:08:44;;;;;;;3.49;3.19;;;;;;;17.44;49.43;98703.16;;;;-53
2020/12/07 06:11:43;;;;;;;3.49;3.19;;;;;;;17.44;49.45;98702.05;;;;-54
2020/12/07 06:14:43;;;;;;;3.22;2.97;;;;;;;17.44;49.43;98707.30;;;;-53
2020/12/07 06:17:43;;;;;;;3.40;3.10;;;;;;;17.43;49.42;98702.39;;;;-51
2020/12/07 06:20:43;;;;;;;3.37;3.07;;;;;;;17.45;49.39;98700.72;;;;-51
2020/12/07 06:23:43;;;;;;;3.18;2.88;;;;;;;17.45;49.47;98700.81;;;;-51
2020/12/07 06:26:43;;;;;;;3.07;2.85;;;;;;;17.47;49.52;98699.23;;;;-54
2020/12/07 06:29:43;;;;;;;9.78;5.41;;;;;;;17.44;48.72;98706.26;;;;-50
2020/12/07 06:32:43;;;;;;;9.77;7.85;;;;;;;17.28;48.09;98704.52;;;;-51
2020/12/07 06:35:43;;;;;;;11.75;9.07;;;;;;;17.13;47.70;98704.94;;;;-48
2020/12/07 06:38:43;;;;;;;10.69;9.59;;;;;;;17.05;47.61;98703.98;;;;-61
2020/12/07 06:41:43;;;;;;;9.67;8.41;;;;;;;17.14;48.20;98709.16;;;;-62
2020/12/07 06:44:43;;;;;;;8.69;7.63;;;;;;;17.20;48.53;98713.11;;;;-61
2020/12/07 06:47:43;;;;;;;8.15;6.95;;;;;;;17.25;48.55;98714.59;;;;-61
2020/12/07 06:50:45;;;;;;;7.70;6.27;;;;;;;17.29;48.60;98717.38;;;;-51
2020/12/07 06:53:47;;;;;;;7.78;6.07;;;;;;;17.31;48.64;98719.87;;;;-60
2020/12/07 06:56:43;;;;;;;7.38;5.80;;;;;;;17.34;48.73;98723.29;;;;-51
2020/12/07 06:59:43;;;;;;;6.03;5.11;;;;;;;17.36;48.71;98727.23;;;;-52
2020/12/07 07:02:43;;;;;;;5.67;5.07;;;;;;;17.38;48.79;98731.33;;;;-53
2020/12/07 07:05:43;;;;;;;5.67;4.87;;;;;;;17.38;48.78;98738.13;;;;-61
2020/12/07 07:08:43;;;;;;;5.26;4.54;;;;;;;17.39;48.83;98737.48;;;;-62
2020/12/07 07:11:43;;;;;;;4.98;4.47;;;;;;;17.41;48.78;98739.88;;;;-52
2020/12/07 07:14:43;;;;;;;4.87;4.43;;;;;;;17.42;48.86;98741.57;;;;-51
2020/12/07 07:17:43;;;;;;;4.63;4.23;;;;;;;17.42;48.87;98742.72;;;;-51
2020/12/07 07:20:43;;;;;;;5.23;4.22;;;;;;;17.42;48.87;98748.78;;;;-62
2020/12/07 07:23:44;;;;;;;4.67;3.93;;;;;;;17.42;48.87;98752.67;;;;-61
2020/12/07 07:26:44;;;;;;;4.43;3.85;;;;;;;17.43;48.86;98756.94;;;;-62
2020/12/07 07:29:43;;;;;;;5.17;3.95;;;;;;;17.42;48.95;98759.06;;;;-62
2020/12/07 07:32:43;;;;;;;4.21;3.81;;;;;;;17.43;48.98;98765.55;;;;-61
2020/12/07 07:35:43;;;;;;;4.13;3.69;;;;;;;17.42;48.90;98758.25;;;;-61
2020/12/07 07:38:43;;;;;;;3.97;3.57;;;;;;;17.43;48.89;98763.77;;;;-62
2020/12/07 07:41:43;;;;;;;3.91;3.51;;;;;;;17.43;48.96;98771.43;;;;-51
2020/12/07 07:44:43;;;;;;;4.01;3.55;;;;;;;17.44;48.96;98774.92;;;;-52
2020/12/07 07:47:50;;;;;;;3.67;3.29;;;;;;;17.43;49.39;98787.24;;;;-47
2020/12/07 07:51:00;;;;;;;9.10;3.90;;;;;;;17.43;49.28;98792.98;;;;-47
2020/12/07 07:54:15;;;;;;;6.27;4.09;;;;;;;17.44;49.13;98788.67;;;;-52
2020/12/07 08:00:33;;;;;;;4.12;3.67;;;;;;;17.47;49.12;98791.48;;;;-48
2020/12/07 08:05:55;;;;;;;4.99;3.50;;;;;;;17.50;49.11;98792.33;;;;-47
2020/12/07 08:12:41;;;;;;;3.63;3.22;;;;;;;17.59;49.13;98799.25;;;;-50
2020/12/07 08:17:43;;;;;;;3.62;3.26;;;;;;;17.67;49.28;98811.55;;;;-50
2020/12/07 08:20:43;;;;;;;4.91;3.26;;;;;;;17.72;49.37;98820.39;;;;-47
2020/12/07 08:23:44;;;;;;;3.49;3.19;;;;;;;17.76;49.46;98820.41;;;;-50
2020/12/07 08:26:43;;;;;;;3.35;3.05;;;;;;;17.81;49.41;98824.75;;;;-51
2020/12/07 08:29:43;;;;;;;3.39;2.99;;;;;;;17.84;49.40;98825.03;;;;-50
2020/12/07 08:32:43;;;;;;;3.69;3.26;;;;;;;17.92;49.56;98825.77;;;;-53
2020/12/07 08:35:43;;;;;;;4.35;3.06;;;;;;;17.95;49.46;98827.01;;;;-54
2020/12/07 08:38:43;;;;;;;6.44;3.20;;;;;;;17.98;49.58;98831.67;;;;-54
2020/12/07 08:41:43;;;;;;;5.38;2.99;;;;;;;18.02;49.59;98837.46;;;;-47
2020/12/07 08:44:43;;;;;;;3.27;2.97;;;;;;;18.04;49.61;98838.64;;;;-47
2020/12/07 08:47:43;;;;;;;4.28;3.05;;;;;;;18.07;49.62;98835.77;;;;-47
2020/12/07 08:50:43;;;;;;;3.21;2.91;;;;;;;18.12;49.66;98836.69;;;;-46
2020/12/07 08:53:43;;;;;;;3.51;2.98;;;;;;;18.13;49.66;98841.34;;;;-47
2020/12/07 08:56:43;;;;;;;3.88;2.95;;;;;;;18.16;49.67;98851.77;;;;-46
2020/12/07 08:59:43;;;;;;;4.68;3.08;;;;;;;18.20;49.66;98850.41;;;;-47
2020/12/07 09:02:43;;;;;;;3.51;2.83;;;;;;;18.22;49.63;98848.45;;;;-47
2020/12/07 09:05:43;;;;;;;4.47;2.97;;;;;;;18.25;49.62;98854.06;;;;-53
2020/12/07 09:08:43;;;;;;;2.95;2.65;;;;;;;18.29;49.62;98855.16;;;;-55
2020/12/07 09:11:44;;;;;;;3.44;3.07;;;;;;;18.31;49.58;98851.96;;;;-48
2020/12/07 09:14:43;;;;;;;3.19;2.84;;;;;;;18.33;49.59;98856.64;;;;-48
2020/12/07 09:17:43;;;;;;;3.88;2.87;;;;;;;18.36;49.60;98867.77;;;;-48
2020/12/07 09:20:43;;;;;;;5.35;2.73;;;;;;;18.41;49.57;98871.04;;;;-54
2020/12/07 09:23:43;;;;;;;4.69;2.94;;;;;;;18.45;49.90;98869.68;;;;-58
2020/12/07 09:26:43;;;;;;;3.07;2.73;;;;;;;18.49;50.22;98869.62;;;;-55
2020/12/07 09:29:43;;;;;;;3.29;2.76;;;;;;;18.52;50.25;98874.12;;;;-55
2020/12/07 09:32:43;;;;;;;2.69;2.47;;;;;;;18.55;50.11;98873.19;;;;-58
2020/12/07 09:35:43;;;;;;;3.16;2.86;;;;;;;18.58;50.39;98874.67;;;;-57
2020/12/07 09:38:43;;;;;;;3.96;2.81;;;;;;;18.61;50.27;98876.88;;;;-52
2020/12/07 09:41:43;;;;;;;3.17;2.61;;;;;;;18.65;50.47;98879.33;;;;-50
2020/12/07 09:44:43;;;;;;;3.14;2.80;;;;;;;18.71;50.61;98885.83;;;;-52
2020/12/07 09:47:43;;;;;;;3.91;2.69;;;;;;;18.72;50.45;98889.94;;;;-60
2020/12/07 09:50:43;;;;;;;2.90;2.57;;;;;;;18.75;50.49;98893.06;;;;-58
2020/12/07 09:53:43;;;;;;;5.54;2.41;;;;;;;18.77;50.16;98892.20;;;;-53
2020/12/07 09:56:43;;;;;;;5.40;2.83;;;;;;;18.81;50.27;98891.61;;;;-49
2020/12/07 09:59:46;;;;;;;5.55;2.67;;;;;;;18.84;50.29;98897.50;;;;-53
2020/12/07 10:02:43;;;;;;;3.65;2.79;;;;;;;18.86;50.00;98901.34;;;;-54
2020/12/07 10:05:43;;;;;;;3.49;2.80;;;;;;;18.89;50.32;98903.91;;;;-51
2020/12/07 10:08:43;;;;;;;5.74;2.81;;;;;;;18.91;50.04;98904.54;;;;-55
2020/12/07 10:11:43;;;;;;;4.25;2.96;;;;;;;18.90;49.73;98904.69;;;;-56
2020/12/07 10:14:43;;;;;;;3.44;2.67;;;;;;;18.88;49.43;98897.41;;;;-61
2020/12/07 10:17:43;;;;;;;3.60;2.71;;;;;;;18.89;49.70;98892.56;;;;-56
2020/12/07 10:20:43;;;;;;;15.48;3.14;;;;;;;18.91;50.00;98888.05;;;;-57
2020/12/07 10:23:43;;;;;;;5.57;2.83;;;;;;;18.93;50.32;98885.98;;;;-54
2020/12/07 10:26:43;;;;;;;5.93;2.81;;;;;;;18.98;50.81;98883.38;;;;-48
2020/12/07 10:29:43;;;;;;;5.85;3.07;;;;;;;18.98;50.46;98880.29;;;;-51
2020/12/07 10:32:43;;;;;;;7.19;3.18;;;;;;;19.01;50.42;98885.69;;;;-51
2020/12/07 10:35:43;;;;;;;6.90;2.86;;;;;;;19.00;50.43;98885.28;;;;-54
2020/12/07 10:38:43;;;;;;;5.10;2.96;;;;;;;19.01;50.00;98884.23;;;;-58
2020/12/07 10:41:43;;;;;;;7.80;3.11;;;;;;;19.03;50.52;98882.83;;;;-54
2020/12/07 10:44:43;;;;;;;10.22;3.74;;;;;;;19.05;50.33;98884.72;;;;-52
2020/12/07 10:47:43;;;;;;;9.67;3.37;;;;;;;19.05;50.13;98884.64;;;;-50
2020/12/07 10:50:43;;;;;;;6.07;3.05;;;;;;;19.07;50.11;98882.82;;;;-50
2020/12/07 10:53:43;;;;;;;5.43;2.87;;;;;;;19.07;50.28;98883.88;;;;-54
2020/12/07 10:56:43;;;;;;;5.32;3.13;;;;;;;19.08;50.01;98884.17;;;;-52
2020/12/07 10:59:43;;;;;;;5.99;3.02;;;;;;;19.11;50.08;98889.64;;;;-54
2020/12/07 11:02:43;;;;;;;4.75;2.95;;;;;;;19.10;49.72;98894.13;;;;-58
2020/12/07 11:05:43;;;;;;;4.33;2.81;;;;;;;19.13;49.80;98904.73;;;;-58
2020/12/07 11:08:54;;;;;;;4.64;2.76;;;;;;;19.13;49.92;98905.63;;;;-57
2020/12/07 11:11:43;;;;;;;5.47;2.71;;;;;;;19.15;49.87;98908.50;;;;-50
2020/12/07 11:14:44;;;;;;;4.93;2.93;;;;;;;19.16;50.07;98906.55;;;;-58
2020/12/07 11:17:43;;;;;;;4.20;2.79;;;;;;;19.18;50.14;98904.40;;;;-54
2020/12/07 11:20:43;;;;;;;4.59;2.79;;;;;;;19.19;49.96;98903.48;;;;-55
2020/12/07 11:23:44;;;;;;;7.09;2.92;;;;;;;19.22;49.91;98900.36;;;;-61
2020/12/07 11:26:43;;;;;;;3.55;2.77;;;;;;;19.20;49.58;98896.17;;;;-57
2020/12/07 11:29:43;;;;;;;3.53;2.68;;;;;;;19.19;49.53;98887.87;;;;-57
2020/12/07 11:32:43;;;;;;;3.08;2.78;;;;;;;19.17;49.38;98891.27;;;;-60
2020/12/07 11:35:43;;;;;;;3.03;2.71;;;;;;;19.17;49.28;98895.06;;;;-58
2020/12/07 11:38:46;;;;;;;3.71;2.91;;;;;;;19.17;49.24;98894.27;;;;-58
2020/12/07 11:41:55;;;;;;;2.79;2.55;;;;;;;19.16;49.18;98894.44;;;;-57
2020/12/07 11:44:43;;;;;;;3.07;2.62;;;;;;;19.15;49.17;98887.55;;;;-56
2020/12/07 11:47:43;;;;;;;3.01;2.74;;;;;;;19.15;49.17;98884.97;;;;-57
2020/12/07 11:50:43;;;;;;;3.15;2.81;;;;;;;19.15;49.12;98877.06;;;;-58
2020/12/07 11:53:43;;;;;;;3.61;2.56;;;;;;;19.15;49.11;98886.27;;;;-57
2020/12/07 11:56:43;;;;;;;3.67;2.67;;;;;;;19.15;48.97;98886.25;;;;-59
2020/12/07 11:59:43;;;;;;;3.87;2.94;;;;;;;19.15;48.99;98880.09;;;;-54
2020/12/07 12:02:43;;;;;;;2.71;2.51;;;;;;;19.15;48.96;98876.19;;;;-53
2020/12/07 12:05:43;;;;;;;2.80;2.60;;;;;;;19.15;48.99;98875.93;;;;-56
2020/12/07 12:08:43;;;;;;;2.97;2.72;;;;;;;19.15;48.99;98882.77;;;;-56
2020/12/07 12:11:44;;;;;;;3.01;2.71;;;;;;;19.15;48.89;98886.34;;;;-57
2020/12/07 12:14:43;;;;;;;7.12;2.89;;;;;;;19.17;49.06;98885.31;;;;-51
2020/12/07 12:17:43;;;;;;;6.65;2.93;;;;;;;19.22;49.72;98888.75;;;;-51
2020/12/07 12:20:43;;;;;;;5.87;3.11;;;;;;;19.23;49.64;98883.67;;;;-50
2020/12/07 12:23:43;;;;;;;5.25;2.89;;;;;;;19.25;49.87;98886.65;;;;-51
2020/12/07 12:26:43;;;;;;;4.23;2.81;;;;;;;19.26;49.82;98885.49;;;;-50
2020/12/07 12:29:43;;;;;;;8.11;3.05;;;;;;;19.28;49.80;98885.53;;;;-53
2020/12/07 12:32:43;;;;;;;4.58;3.06;;;;;;;19.28;49.59;98885.31;;;;-62
2020/12/07 12:35:43;;;;;;;4.39;2.88;;;;;;;19.27;49.33;98886.84;;;;-57
2020/12/07 12:38:43;;;;;;;3.93;2.87;;;;;;;19.27;49.32;98888.08;;;;-57
2020/12/07 12:41:43;;;;;;;4.51;2.79;;;;;;;19.26;49.22;98891.84;;;;-61
2020/12/07 12:44:43;;;;;;;3.73;2.93;;;;;;;19.25;49.13;98894.61;;;;-56
2020/12/07 12:47:43;;;;;;;7.44;2.71;;;;;;;19.25;49.38;98895.89;;;;-51
2020/12/07 12:50:43;;;;;;;5.87;2.67;;;;;;;19.27;49.71;98895.04;;;;-60
2020/12/07 12:53:43;;;;;;;4.46;2.81;;;;;;;19.28;49.80;98893.81;;;;-57
2020/12/07 12:56:43;;;;;;;3.25;2.82;;;;;;;19.29;49.83;98894.95;;;;-54
2020/12/07 12:59:43;;;;;;;3.63;2.63;;;;;;;19.30;49.90;98898.59;;;;-52
2020/12/07 13:02:43;;;;;;;3.83;3.11;;;;;;;19.32;49.95;98897.08;;;;-51
2020/12/07 13:05:43;;;;;;;3.91;2.80;;;;;;;19.32;49.86;98897.42;;;;-61
2020/12/07 13:08:43;;;;;;;4.28;2.69;;;;;;;19.32;49.90;98893.84;;;;-52
2020/12/07 13:11:44;;;;;;;3.53;2.86;;;;;;;19.33;49.97;98895.51;;;;-52
2020/12/07 13:14:43;;;;;;;2.83;2.57;;;;;;;19.35;49.94;98900.45;;;;-51
2020/12/07 13:17:48;;;;;;;3.36;2.69;;;;;;;19.35;49.96;98897.27;;;;-52
2020/12/07 13:20:47;;;;;;;3.35;2.64;;;;;;;19.36;50.07;98899.35;;;;-61
2020/12/07 13:23:46;;;;;;;2.93;2.65;;;;;;;19.37;49.91;98900.00;;;;-54
2020/12/07 13:26:50;;;;;;;3.09;2.61;;;;;;;19.37;49.91;98894.63;;;;-60
2020/12/07 13:29:43;;;;;;;3.53;2.79;;;;;;;19.40;49.62;98894.50;;;;-64
2020/12/07 13:32:43;;;;;;;4.67;2.69;;;;;;;19.37;49.42;98895.29;;;;-52
2020/12/07 13:35:43;;;;;;;3.71;2.51;;;;;;;19.39;49.84;98896.30;;;;-52
2020/12/07 13:38:43;;;;;;;4.60;3.05;;;;;;;19.39;49.76;98893.46;;;;-55
2020/12/07 13:41:43;;;;;;;2.99;2.69;;;;;;;19.41;49.77;98893.27;;;;-53
2020/12/07 13:44:43;;;;;;;4.19;2.79;;;;;;;19.42;49.82;98890.23;;;;-51
2020/12/07 13:47:43;;;;;;;4.91;2.85;;;;;;;19.44;49.52;98892.16;;;;-58
2020/12/07 13:50:43;;;;;;;3.56;2.81;;;;;;;19.45;49.34;98894.33;;;;-58
2020/12/07 13:53:43;;;;;;;4.54;2.66;;;;;;;19.47;49.63;98895.91;;;;-58
2020/12/07 13:56:43;;;;;;;4.03;2.82;;;;;;;19.48;49.37;98900.84;;;;-54
2020/12/07 13:59:43;;;;;;;4.73;2.88;;;;;;;19.51;49.70;98901.52;;;;-55
2020/12/07 14:02:43;;;;;;;3.70;2.95;;;;;;;19.51;49.16;98898.11;;;;-52
2020/12/07 14:05:43;;;;;;;3.29;2.97;;;;;;;19.53;49.32;98899.62;;;;-58
2020/12/07 14:08:43;;;;;;;4.43;2.75;;;;;;;19.55;49.19;98906.83;;;;-51
2020/12/07 14:11:43;;;;;;;3.27;2.97;;;;;;;19.57;48.96;98913.84;;;;-58
2020/12/07 14:14:43;;;;;;;3.66;2.84;;;;;;;19.58;49.01;98922.42;;;;-52
2020/12/07 14:17:53;;;;;;;3.41;3.03;;;;;;;19.60;49.08;98925.89;;;;-54
2020/12/07 14:20:52;;;;;;;3.85;3.07;;;;;;;19.62;49.50;98928.20;;;;-51
2020/12/07 14:23:46;;;;;;;3.57;2.94;;;;;;;19.65;49.22;98933.03;;;;-53
2020/12/07 14:26:54;;;;;;;3.53;2.69;;;;;;;19.66;49.18;98937.41;;;;-59
2020/12/07 14:30:00;;;;;;;7.41;2.89;;;;;;;19.67;49.38;98938.02;;;;-56
2020/12/07 14:39:03;;;;;;;3.59;2.76;;;;;;;19.73;49.59;98940.39;;;;-60
2020/12/07 14:41:43;;;;;;;3.91;2.60;;;;;;;19.73;49.63;98939.95;;;;-59
2020/12/07 14:44:46;;;;;;;3.09;2.49;;;;;;;19.76;49.64;98939.94;;;;-59
2020/12/07 14:47:44;;;;;;;3.09;2.55;;;;;;;19.77;49.72;98935.17;;;;-56
2020/12/07 14:50:48;;;;;;;3.07;2.77;;;;;;;19.79;49.61;98939.13;;;;-55
2020/12/07 14:53:43;;;;;;;3.00;2.63;;;;;;;19.82;49.51;98936.73;;;;-60
2020/12/07 14:56:49;;;;;;;3.11;2.69;;;;;;;19.83;49.51;98939.45;;;;-52
2020/12/07 15:05:19;;;;;;;3.31;2.57;;;;;;;19.86;49.47;98940.06;;;;-59
2020/12/07 15:06:51;;;;;;;3.11;2.47;;;;;;;19.89;49.72;98943.17;;;;-55
2020/12/07 15:16:43;;;;;;;3.13;2.69;;;;;;;19.95;49.74;98947.44;;;;-55
2020/12/07 15:19:43;;;;;;;3.22;2.62;;;;;;;19.95;49.49;98948.97;;;;-52
2020/12/07 15:22:43;;;;;;;3.04;2.71;;;;;;;19.97;49.66;98949.25;;;;-52
2020/12/07 15:25:45;;;;;;;3.26;2.65;;;;;;;19.98;49.48;98945.25;;;;-52
2020/12/07 15:28:43;;;;;;;3.31;2.72;;;;;;;20.00;49.52;98948.97;;;;-52
2020/12/07 15:31:43;;;;;;;2.78;2.39;;;;;;;20.02;49.69;98950.80;;;;-56
2020/12/07 15:34:43;;;;;;;3.21;2.70;;;;;;;20.02;49.61;98954.59;;;;-52
2020/12/07 15:40:06;;;;;;;3.00;2.70;;;;;;;20.04;49.59;98950.33;;;;-51
2020/12/07 15:43:03;;;;;;;3.07;2.47;;;;;;;20.07;49.53;98949.16;;;;-52
2020/12/07 15:46:03;;;;;;;3.10;2.60;;;;;;;20.08;49.62;98955.63;;;;-58
2020/12/07 15:49:03;;;;;;;3.27;2.59;;;;;;;20.09;49.32;98949.77;;;;-54
2020/12/07 15:52:04;;;;;;;3.63;2.81;;;;;;;20.09;49.15;98952.38;;;;-57
2020/12/07 15:55:04;;;;;;;2.71;2.50;;;;;;;20.08;49.16;98953.01;;;;-57
2020/12/07 15:58:03;;;;;;;2.99;2.59;;;;;;;20.08;49.04;98953.10;;;;-57
2020/12/07 16:01:03;;;;;;;4.03;2.71;;;;;;;20.08;48.99;98951.31;;;;-58
2020/12/07 16:04:03;;;;;;;2.80;2.60;;;;;;;20.08;48.95;98950.91;;;;-54
2020/12/07 16:07:03;;;;;;;2.83;2.53;;;;;;;20.09;48.89;98949.84;;;;-53
2020/12/07 16:10:03;;;;;;;2.69;2.44;;;;;;;20.11;48.89;98951.45;;;;-54
2020/12/07 16:13:03;;;;;;;2.80;2.60;;;;;;;20.09;48.78;98952.52;;;;-57
2020/12/07 16:16:03;;;;;;;3.16;2.45;;;;;;;20.11;48.76;98952.09;;;;-57
2020/12/07 16:19:03;;;;;;;2.89;2.49;;;;;;;20.11;48.77;98945.41;;;;-53
2020/12/07 16:22:03;;;;;;;3.31;2.73;;;;;;;20.12;48.77;98953.20;;;;-56
2020/12/07 16:25:03;;;;;;;2.74;2.43;;;;;;;20.12;48.76;98959.87;;;;-56
2020/12/07 16:28:03;;;;;;;3.38;2.48;;;;;;;20.13;48.69;98957.06;;;;-59
2020/12/07 16:31:03;;;;;;;3.02;2.72;;;;;;;20.13;48.55;98955.94;;;;-59
2020/12/07 16:34:03;;;;;;;2.65;2.45;;;;;;;20.14;48.59;98962.17;;;;-58
2020/12/07 16:37:03;;;;;;;2.73;2.53;;;;;;;20.14;48.54;98961.29;;;;-59
2020/12/07 16:40:03;;;;;;;2.75;2.43;;;;;;;20.14;48.56;98966.41;;;;-58
2020/12/07 16:43:03;;;;;;;5.69;2.67;;;;;;;20.12;48.63;98961.64;;;;-59
2020/12/07 16:46:03;;;;;;;9.51;2.75;;;;;;;20.18;48.49;98962.98;;;;-56
2020/12/07 16:49:03;;;;;;;6.58;2.83;;;;;;;20.19;48.26;98969.48;;;;-57
2020/12/07 16:52:03;;;;;;;6.37;2.92;;;;;;;20.23;49.05;98969.96;;;;-55
2020/12/07 16:55:03;;;;;;;4.29;2.72;;;;;;;20.25;48.97;98965.04;;;;-53
2020/12/07 16:58:03;;;;;;;6.33;2.87;;;;;;;20.24;49.02;98964.01;;;;-51
2020/12/07 17:01:03;;;;;;;7.10;2.74;;;;;;;20.26;48.96;98964.80;;;;-57
2020/12/07 17:04:03;;;;;;;9.68;2.84;;;;;;;20.26;48.83;98968.61;;;;-56
2020/12/07 17:07:03;;;;;;;8.59;2.97;;;;;;;20.27;48.90;98964.25;;;;-56
2020/12/07 17:10:03;;;;;;;4.80;2.66;;;;;;;20.29;49.09;98966.19;;;;-59
2020/12/07 17:13:03;;;;;;;4.24;2.69;;;;;;;20.31;49.06;98961.34;;;;-60
2020/12/07 17:16:03;;;;;;;4.40;2.65;;;;;;;20.34;49.18;98968.84;;;;-51
2020/12/07 17:19:03;;;;;;;3.77;2.51;;;;;;;20.36;49.20;98961.81;;;;-52
2020/12/07 17:22:03;;;;;;;3.21;2.51;;;;;;;20.39;49.17;98962.64;;;;-56
2020/12/07 17:25:03;;;;;;;4.56;2.62;;;;;;;20.40;49.13;98965.22;;;;-53
2020/12/07 17:28:03;;;;;;;6.63;2.94;;;;;;;20.40;49.23;98962.44;;;;-60